Aviation Digital Data Service (ADDS)

Output produced by METARs form (0235 UTC 26 July 2017)
found at http://www.aviationweather.gov/adds/metars/
 
KMIV 260232Z AUTO 07006KT 10SM FEW021 SCT028 OVC035 21/20 A3018 RMK AO2 T02060200
KMIV 260118Z 2601/2624 08006KT P6SM BKN035 
     TEMPO 2605/2609 BKN025 
     FM261400 06004KT P6SM BKN035 
     FM261800 10006KT P6SM SCT035 
     FM262300 13005KT P6SM SCT250